DAL2525 KMHT-KBOS
Flight info
| Callsign | DAL2525 |
|---|---|
| Flight time | 0h 21m |
| Altitude | 7000 |
| Route | LWRNC |
| Aircraft | E110/L-SDFGHRY/S |
Departure
| Time | 2026-04-18 07:48 |
|---|---|
| Airport | Manchester-Boston Regional Airport (KMHT) |
Arrival
| Time | 2026-04-18 08:09 |
|---|---|
| Airport | Boston Logan International Airport (KBOS) |
| Time | Latitude | Longitude | Altitude | Speed | Heading |
|---|---|---|---|---|---|
| 2026-04-18 07:39 | 42.92736 | -71.43350 | 253 ft | 0 kts | 246° |
| 2026-04-18 07:44 | 42.92736 | -71.43352 | 253 ft | 1 kts | 258° |
| 2026-04-18 07:44 | 42.92750 | -71.43352 | 253 ft | 5 kts | 65° |
| 2026-04-18 07:45 | 42.92738 | -71.43281 | 253 ft | 11 kts | 113° |
| 2026-04-18 07:45 | 42.92667 | -71.43225 | 255 ft | 14 kts | 156° |
| 2026-04-18 07:45 | 42.92565 | -71.43163 | 257 ft | 18 kts | 155° |
| 2026-04-18 07:45 | 42.92485 | -71.43100 | 258 ft | 11 kts | 121° |
| 2026-04-18 07:46 | 42.92503 | -71.42988 | 258 ft | 13 kts | 43° |
| 2026-04-18 07:46 | 42.92536 | -71.42983 | 257 ft | 0 kts | 330° |
| 2026-04-18 07:47 | 42.92560 | -71.43001 | 257 ft | 15 kts | 333° |
| 2026-04-18 07:47 | 42.92935 | -71.43223 | 250 ft | 108 kts | 339° |
| 2026-04-18 07:47 | 42.93768 | -71.43748 | 420 ft | 149 kts | 339° |
| 2026-04-18 07:47 | 42.94848 | -71.43612 | 613 ft | 173 kts | 32° |
| 2026-04-18 07:48 | 42.95543 | -71.42260 | 818 ft | 183 kts | 78° |
| 2026-04-18 07:48 | 42.95337 | -71.40563 | 1036 ft | 187 kts | 121° |
| 2026-04-18 07:48 | 42.94359 | -71.39397 | 1255 ft | 189 kts | 148° |
| 2026-04-18 07:48 | 42.93300 | -71.38349 | 1459 ft | 188 kts | 135° |
| 2026-04-18 07:49 | 42.92413 | -71.37066 | 1663 ft | 187 kts | 130° |
| 2026-04-18 07:49 | 42.91535 | -71.35709 | 1866 ft | 193 kts | 130° |
| 2026-04-18 07:49 | 42.90630 | -71.34350 | 2072 ft | 194 kts | 130° |
| 2026-04-18 07:49 | 42.89720 | -71.32986 | 2274 ft | 194 kts | 129° |
| 2026-04-18 07:50 | 42.88812 | -71.31621 | 2485 ft | 194 kts | 129° |
| 2026-04-18 07:50 | 42.87906 | -71.30263 | 2684 ft | 193 kts | 129° |
| 2026-04-18 07:50 | 42.87001 | -71.28905 | 2889 ft | 193 kts | 129° |
| 2026-04-18 07:50 | 42.86100 | -71.27553 | 3096 ft | 192 kts | 129° |
| 2026-04-18 07:51 | 42.85201 | -71.26206 | 3301 ft | 192 kts | 128° |
| 2026-04-18 07:51 | 42.84303 | -71.24862 | 3519 ft | 192 kts | 128° |
| 2026-04-18 07:51 | 42.83403 | -71.23517 | 3720 ft | 193 kts | 128° |
| 2026-04-18 07:51 | 42.82502 | -71.22165 | 3911 ft | 193 kts | 128° |
| 2026-04-18 07:52 | 42.81595 | -71.20807 | 4110 ft | 194 kts | 128° |
| 2026-04-18 07:52 | 42.80686 | -71.19448 | 4310 ft | 194 kts | 129° |
| 2026-04-18 07:52 | 42.79771 | -71.18081 | 4513 ft | 195 kts | 128° |
| 2026-04-18 07:52 | 42.78861 | -71.16720 | 4715 ft | 195 kts | 129° |
| 2026-04-18 07:53 | 42.77943 | -71.15351 | 4929 ft | 196 kts | 128° |
| 2026-04-18 07:53 | 42.77016 | -71.13967 | 5003 ft | 202 kts | 129° |
| 2026-04-18 07:53 | 42.76057 | -71.12538 | 5009 ft | 207 kts | 129° |
| 2026-04-18 07:53 | 42.75095 | -71.11106 | 5007 ft | 208 kts | 129° |
| 2026-04-18 07:54 | 42.74078 | -71.09695 | 5008 ft | 211 kts | 139° |
| 2026-04-18 07:54 | 42.72761 | -71.08767 | 5015 ft | 215 kts | 154° |
| 2026-04-18 07:54 | 42.71389 | -71.07965 | 5017 ft | 215 kts | 152° |
| 2026-04-18 07:54 | 42.70043 | -71.07160 | 5014 ft | 208 kts | 152° |
| 2026-04-18 07:55 | 42.68697 | -71.06354 | 5021 ft | 215 kts | 152° |
| 2026-04-18 07:55 | 42.67311 | -71.05537 | 5015 ft | 219 kts | 153° |
| 2026-04-18 07:55 | 42.65905 | -71.04709 | 5016 ft | 220 kts | 152° |
| 2026-04-18 07:55 | 42.64499 | -71.03877 | 5021 ft | 221 kts | 152° |
| 2026-04-18 07:56 | 42.63086 | -71.03043 | 5010 ft | 221 kts | 152° |
| 2026-04-18 07:56 | 42.61673 | -71.02207 | 5009 ft | 221 kts | 152° |
| 2026-04-18 07:56 | 42.60255 | -71.01369 | 5010 ft | 222 kts | 152° |
| 2026-04-18 07:56 | 42.58840 | -71.00533 | 5010 ft | 222 kts | 152° |
| 2026-04-18 07:57 | 42.57424 | -70.99698 | 4999 ft | 222 kts | 152° |
| 2026-04-18 07:57 | 42.55998 | -70.98857 | 4917 ft | 225 kts | 152° |
| 2026-04-18 07:57 | 42.54593 | -70.98035 | 4811 ft | 211 kts | 152° |
| 2026-04-18 07:57 | 42.53287 | -70.97263 | 4705 ft | 200 kts | 151° |
| 2026-04-18 07:58 | 42.50799 | -70.95786 | 4500 ft | 193 kts | 151° |
| 2026-04-18 07:58 | 42.49588 | -70.95075 | 4388 ft | 191 kts | 151° |
| 2026-04-18 07:58 | 42.48352 | -70.94346 | 4284 ft | 191 kts | 151° |
| 2026-04-18 07:59 | 42.47138 | -70.93632 | 4183 ft | 190 kts | 151° |
| 2026-04-18 07:59 | 42.45936 | -70.92927 | 4107 ft | 190 kts | 150° |
| 2026-04-18 07:59 | 42.44722 | -70.92213 | 4002 ft | 190 kts | 150° |
| 2026-04-18 07:59 | 42.43494 | -70.91492 | 3902 ft | 190 kts | 150° |
| 2026-04-18 08:00 | 42.42295 | -70.90789 | 3813 ft | 190 kts | 151° |
| 2026-04-18 08:00 | 42.41081 | -70.90077 | 3690 ft | 190 kts | 150° |
| 2026-04-18 08:00 | 42.39870 | -70.89366 | 3589 ft | 190 kts | 150° |
| 2026-04-18 08:00 | 42.38655 | -70.88654 | 3490 ft | 190 kts | 150° |
| 2026-04-18 08:01 | 42.37442 | -70.87943 | 3395 ft | 190 kts | 149° |
| 2026-04-18 08:01 | 42.36229 | -70.87232 | 3290 ft | 190 kts | 150° |
| 2026-04-18 08:01 | 42.35019 | -70.86523 | 3189 ft | 187 kts | 150° |
| 2026-04-18 08:01 | 42.33879 | -70.85864 | 3088 ft | 171 kts | 149° |
| 2026-04-18 08:02 | 42.32812 | -70.85234 | 2980 ft | 165 kts | 148° |
| 2026-04-18 08:02 | 42.31772 | -70.84621 | 2870 ft | 162 kts | 149° |
| 2026-04-18 08:02 | 42.30746 | -70.84020 | 2767 ft | 160 kts | 148° |
| 2026-04-18 08:02 | 42.29728 | -70.83424 | 2661 ft | 159 kts | 148° |
| 2026-04-18 08:03 | 42.28713 | -70.82831 | 2556 ft | 159 kts | 149° |
| 2026-04-18 08:03 | 42.27708 | -70.82244 | 2524 ft | 155 kts | 148° |
| 2026-04-18 08:03 | 42.26726 | -70.81670 | 2517 ft | 153 kts | 148° |
| 2026-04-18 08:03 | 42.25757 | -70.81093 | 2516 ft | 151 kts | 144° |
| 2026-04-18 08:04 | 42.24764 | -70.80637 | 2505 ft | 160 kts | 175° |
| 2026-04-18 08:04 | 42.23740 | -70.81304 | 2517 ft | 174 kts | 226° |
| 2026-04-18 08:04 | 42.23358 | -70.82773 | 2510 ft | 163 kts | 279° |
| 2026-04-18 08:04 | 42.23812 | -70.84046 | 2522 ft | 145 kts | 326° |
| 2026-04-18 08:05 | 42.24624 | -70.84713 | 2525 ft | 142 kts | 329° |
| 2026-04-18 08:05 | 42.25348 | -70.85669 | 2519 ft | 143 kts | 326° |
| 2026-04-18 08:05 | 42.26067 | -70.86581 | 2522 ft | 144 kts | 325° |
| 2026-04-18 08:05 | 42.26796 | -70.87531 | 2462 ft | 149 kts | 324° |
| 2026-04-18 08:06 | 42.27549 | -70.88553 | 2268 ft | 157 kts | 323° |
| 2026-04-18 08:06 | 42.28332 | -70.89590 | 2053 ft | 159 kts | 322° |
| 2026-04-18 08:06 | 42.29118 | -70.90656 | 1837 ft | 160 kts | 322° |
| 2026-04-18 08:06 | 42.29895 | -70.91681 | 1620 ft | 151 kts | 322° |
| 2026-04-18 08:07 | 42.30586 | -70.92628 | 1419 ft | 133 kts | 322° |
| 2026-04-18 08:07 | 42.31232 | -70.93481 | 1243 ft | 127 kts | 322° |
| 2026-04-18 08:07 | 42.31845 | -70.94311 | 1072 ft | 119 kts | 321° |
| 2026-04-18 08:07 | 42.32415 | -70.95071 | 909 ft | 112 kts | 320° |
| 2026-04-18 08:08 | 42.32953 | -70.95788 | 754 ft | 105 kts | 319° |
| 2026-04-18 08:08 | 42.33287 | -70.96245 | 663 ft | 102 kts | 317° |
| 2026-04-18 08:08 | 42.33937 | -70.97111 | 479 ft | 95 kts | 318° |
| 2026-04-18 08:08 | 42.34246 | -70.97526 | 396 ft | 94 kts | 317° |
| 2026-04-18 08:09 | 42.34702 | -70.98140 | 272 ft | 92 kts | 315° |
| 2026-04-18 08:09 | 42.35149 | -70.98743 | 150 ft | 89 kts | 316° |
| 2026-04-18 08:09 | 42.35575 | -70.99322 | 43 ft | 85 kts | 316° |
| 2026-04-18 08:09 | 42.35924 | -70.99787 | 27 ft | 33 kts | 316° |
| 2026-04-18 08:10 | 42.35946 | -70.99958 | 24 ft | 21 kts | 272° |
| 2026-04-18 08:10 | 42.35974 | -71.00131 | 25 ft | 20 kts | 289° |
| 2026-04-18 08:10 | 42.36027 | -71.00284 | 22 ft | 17 kts | 316° |
| 2026-04-18 08:10 | 42.36082 | -71.00434 | 22 ft | 18 kts | 262° |
| 2026-04-18 08:11 | 42.36094 | -71.00609 | 19 ft | 20 kts | 284° |
| 2026-04-18 08:11 | 42.36144 | -71.00798 | 19 ft | 22 kts | 292° |
| 2026-04-18 08:11 | 42.36207 | -71.00978 | 21 ft | 21 kts | 291° |
| 2026-04-18 08:11 | 42.36248 | -71.01105 | 22 ft | 0 kts | 298° |
| 2026-04-18 08:12 | 42.36249 | -71.01107 | 21 ft | 2 kts | 299° |
| 2026-04-18 08:12 | 42.36263 | -71.01146 | 21 ft | 7 kts | 293° |
| 2026-04-18 08:12 | 42.36297 | -71.01228 | 22 ft | 12 kts | 300° |
| 2026-04-18 08:13 | 42.36322 | -71.01281 | 21 ft | 4 kts | 304° |
| 2026-04-18 08:13 | 42.36350 | -71.01344 | 19 ft | 12 kts | 300° |
| 2026-04-18 08:13 | 42.36390 | -71.01466 | 18 ft | 13 kts | 295° |
| 2026-04-18 08:13 | 42.36461 | -71.01518 | 19 ft | 8 kts | 15° |
| 2026-04-18 08:14 | 42.36480 | -71.01511 | 19 ft | 0 kts | 16° |